TimePDT,TemperatureF,Dew PointF,Humidity,Sea Level PressureIn,VisibilityMPH,Wind Direction,Wind SpeedMPH,Gust SpeedMPH,PrecipitationIn,Events,Conditions,WindDirDegrees,DateUTC
12:56 AM,75.0,34.0,22,29.94,10.0,SSW,9.2,-,N/A,,Clear,210,2012-09-19 07:56:00
1:56 AM,72.0,33.1,24,29.95,10.0,Calm,Calm,-,N/A,,Clear,0,2012-09-19 08:56:00
2:56 AM,66.9,32.0,27,29.95,10.0,WNW,4.6,-,N/A,,Clear,300,2012-09-19 09:56:00
3:56 AM,64.9,32.0,29,29.95,10.0,Calm,Calm,-,N/A,,Clear,0,2012-09-19 10:56:00
4:56 AM,66.9,32.0,27,29.95,10.0,SSW,4.6,-,N/A,,Clear,200,2012-09-19 11:56:00
5:56 AM,68.0,33.1,27,29.96,10.0,West,3.5,-,N/A,,Clear,280,2012-09-19 12:56:00
6:56 AM,64.0,30.9,29,29.99,10.0,Calm,Calm,-,N/A,,Clear,0,2012-09-19 13:56:00
7:56 AM,68.0,30.9,25,30.01,10.0,Calm,Calm,-,N/A,,Clear,0,2012-09-19 14:56:00
8:56 AM,75.0,32.0,21,30.01,10.0,Calm,Calm,-,N/A,,Clear,0,2012-09-19 15:56:00
9:56 AM,82.0,33.1,17,30.01,10.0,Calm,Calm,-,N/A,,Clear,0,2012-09-19 16:56:00
10:56 AM,88.0,33.1,14,30.01,10.0,Calm,Calm,-,N/A,,Clear,0,2012-09-19 17:56:00
11:56 AM,93.0,34.0,12,29.98,10.0,Calm,Calm,-,N/A,,Clear,0,2012-09-19 18:56:00
12:56 PM,96.1,33.1,11,29.97,10.0,NE,4.6,-,N/A,,Clear,50,2012-09-19 19:56:00
1:56 PM,97.0,33.1,11,29.94,10.0,NW,6.9,-,N/A,,Clear,320,2012-09-19 20:56:00
2:56 PM,97.0,33.1,11,29.93,10.0,North,3.5,-,N/A,,Clear,360,2012-09-19 21:56:00
3:56 PM,97.0,33.1,11,29.91,10.0,Variable,3.5,-,N/A,,Clear,0,2012-09-19 22:56:00
4:56 PM,98.1,33.1,10,29.89,10.0,Calm,Calm,-,N/A,,Clear,0,2012-09-19 23:56:00
5:56 PM,96.1,33.1,11,29.88,10.0,Calm,Calm,-,N/A,,Clear,0,2012-09-20 00:56:00
6:56 PM,91.9,30.9,11,29.89,10.0,West,3.5,-,N/A,,Clear,270,2012-09-20 01:56:00
7:56 PM,87.1,33.1,15,29.91,10.0,WSW,8.1,-,N/A,,Clear,240,2012-09-20 02:56:00
8:56 PM,82.0,34.0,18,29.93,10.0,SSW,3.5,-,N/A,,Clear,210,2012-09-20 03:56:00
9:56 PM,81.0,34.0,18,29.94,10.0,East,4.6,-,N/A,,Clear,90,2012-09-20 04:56:00
10:56 PM,77.0,35.1,22,29.93,10.0,South,4.6,-,N/A,,Clear,180,2012-09-20 05:56:00
11:56 PM,75.9,35.1,23,29.92,10.0,South,9.2,-,N/A,,Clear,190,2012-09-20 06:56:00